createdAt,value
2022-12-05T00:01:38.830Z,27.40
2022-12-05T00:04:09.192Z,27.40
2022-12-05T00:06:38.331Z,24.30
2022-12-05T00:09:06.810Z,22.80
2022-12-05T00:11:38.347Z,25.10
2022-12-05T00:14:06.745Z,24.10
2022-12-05T00:16:35.496Z,22.50
2022-12-05T00:19:05.226Z,21.00
2022-12-05T00:21:36.156Z,19.00
2022-12-05T00:24:05.132Z,17.80
2022-12-05T00:26:32.608Z,20.90
2022-12-05T00:29:00.018Z,19.00
2022-12-05T00:31:28.349Z,19.80
2022-12-05T00:33:56.494Z,18.50
2022-12-05T00:36:26.014Z,23.60
2022-12-05T00:38:54.080Z,23.80
2022-12-05T00:41:23.500Z,20.30
2022-12-05T00:43:51.069Z,19.50
2022-12-05T00:46:24.149Z,17.10
2022-12-05T00:48:54.041Z,16.40
2022-12-05T00:51:28.401Z,17.10
2022-12-05T00:53:58.842Z,19.40
2022-12-05T00:56:27.781Z,17.90
2022-12-05T00:58:55.976Z,18.80
2022-12-05T01:01:29.507Z,19.10
2022-12-05T01:03:58.245Z,18.30
2022-12-05T01:06:26.289Z,19.40
2022-12-05T01:08:56.946Z,16.50
2022-12-05T01:11:25.891Z,16.10
2022-12-05T01:13:54.121Z,17.00
2022-12-05T01:16:25.723Z,13.70
2022-12-05T01:18:53.689Z,18.20
2022-12-05T01:21:21.608Z,18.30
2022-12-05T01:23:49.141Z,20.10
2022-12-05T01:26:17.855Z,19.70
2022-12-05T01:28:46.243Z,20.20
2022-12-05T01:31:24.597Z,18.50
2022-12-05T01:33:53.642Z,15.00
2022-12-05T01:36:21.543Z,17.90
2022-12-05T01:38:48.609Z,17.10
2022-12-05T01:41:19.806Z,18.90
2022-12-05T01:44:01.470Z,23.20
2022-12-05T01:46:32.147Z,21.60
2022-12-05T01:49:08.108Z,21.00
2022-12-05T01:51:38.256Z,18.70
2022-12-05T01:54:06.533Z,18.20
2022-12-05T01:56:34.964Z,24.50
2022-12-05T01:59:04.266Z,17.60
2022-12-05T02:01:31.702Z,31.90
2022-12-05T02:03:59.729Z,17.50
2022-12-05T02:06:28.354Z,37.60
2022-12-05T02:08:55.529Z,27.70
2022-12-05T02:11:25.164Z,17.90
2022-12-05T02:14:04.525Z,45.70
2022-12-05T02:16:48.735Z,51.90
2022-12-05T02:19:31.416Z,27.60
2022-12-05T02:22:20.456Z,18.80
2022-12-05T02:24:58.716Z,19.00
2022-12-05T02:27:47.270Z,21.20
2022-12-05T02:30:23.609Z,26.20
2022-12-05T02:33:06.147Z,19.00
2022-12-05T02:36:06.192Z,57.70
2022-12-05T02:38:42.307Z,17.20
2022-12-05T02:41:17.009Z,20.80
2022-12-05T02:43:53.099Z,24.20
2022-12-05T02:46:24.324Z,17.20
2022-12-05T02:48:57.119Z,19.00
2022-12-05T02:51:29.289Z,17.10
2022-12-05T02:54:00.637Z,17.80
2022-12-05T02:56:29.887Z,21.00
2022-12-05T02:58:56.889Z,18.60
2022-12-05T03:01:27.682Z,21.70
2022-12-05T03:03:56.146Z,21.70
2022-12-05T03:06:31.468Z,20.50
2022-12-05T03:09:04.719Z,16.70
2022-12-05T03:11:38.727Z,23.70
2022-12-05T03:14:10.918Z,19.70
2022-12-05T03:16:47.925Z,16.10
2022-12-05T03:19:24.906Z,17.10
2022-12-05T03:22:10.154Z,20.60
2022-12-05T03:24:40.713Z,24.80
2022-12-05T03:27:20.842Z,10.60
2022-12-05T03:30:02.272Z,28.00
2022-12-05T03:32:54.974Z,26.40
2022-12-05T03:35:35.617Z,18.20
2022-12-05T03:38:11.780Z,15.20
2022-12-05T03:40:47.454Z,16.10
2022-12-05T03:43:51.450Z,18.80
2022-12-05T03:46:24.597Z,17.20
2022-12-05T03:49:17.304Z,20.50
2022-12-05T03:51:53.523Z,33.00
2022-12-05T03:54:26.439Z,20.20
2022-12-05T03:57:01.468Z,18.50
2022-12-05T03:59:38.862Z,12.40
2022-12-05T04:02:13.897Z,17.30
2022-12-05T04:04:51.722Z,19.00
2022-12-05T04:07:20.665Z,22.70
2022-12-05T04:09:54.996Z,24.00
2022-12-05T04:12:31.357Z,22.90
2022-12-05T04:15:02.186Z,24.20
2022-12-05T04:17:53.596Z,29.10
2022-12-05T04:20:58.032Z,21.80
2022-12-05T04:23:26.205Z,30.80
2022-12-05T04:26:11.558Z,31.60
2022-12-05T04:28:48.462Z,29.60
2022-12-05T04:31:29.763Z,28.90
2022-12-05T04:34:10.309Z,31.20
2022-12-05T04:36:58.206Z,23.00
2022-12-05T04:39:35.178Z,17.70
2022-12-05T04:42:07.728Z,18.00
2022-12-05T04:44:40.408Z,18.40
2022-12-05T04:47:09.915Z,18.80
2022-12-05T04:49:38.372Z,18.80
2022-12-05T04:52:10.770Z,15.40
2022-12-05T04:55:01.476Z,13.60
2022-12-05T04:57:33.794Z,14.00
2022-12-05T05:00:01.016Z,17.80
2022-12-05T05:02:34.578Z,19.10
2022-12-05T05:05:10.928Z,19.60
2022-12-05T05:07:49.227Z,19.70
2022-12-05T05:10:22.419Z,34.30
2022-12-05T05:12:49.492Z,20.00
2022-12-05T05:15:16.566Z,21.50
2022-12-05T05:17:43.590Z,19.10
2022-12-05T05:20:27.280Z,14.90
2022-12-05T05:22:56.296Z,20.30
2022-12-05T05:25:24.342Z,21.40
2022-12-05T05:27:53.439Z,22.60
2022-12-05T05:30:22.024Z,21.30
2022-12-05T05:32:49.507Z,22.90
2022-12-05T05:35:17.232Z,31.10
2022-12-05T05:37:44.626Z,36.40
2022-12-05T05:40:13.493Z,27.70
2022-12-05T05:42:45.917Z,19.40
2022-12-05T05:45:15.094Z,59.40
2022-12-05T05:47:42.497Z,32.10
2022-12-05T05:50:10.703Z,38.80
2022-12-05T05:52:38.614Z,34.20
2022-12-05T05:55:07.186Z,80.50
2022-12-05T05:57:34.325Z,33.90
2022-12-05T06:00:01.730Z,30.10
2022-12-05T06:02:33.668Z,27.80
2022-12-05T06:05:01.535Z,17.60
2022-12-05T06:07:29.374Z,17.40
2022-12-05T06:09:57.179Z,18.80
2022-12-05T06:12:24.681Z,36.60
2022-12-05T06:14:52.725Z,68.30
2022-12-05T06:17:19.824Z,23.60
2022-12-05T06:19:46.923Z,31.10
2022-12-05T06:22:13.947Z,24.30
2022-12-05T06:24:40.996Z,50.20
2022-12-05T06:27:08.056Z,26.70
2022-12-05T06:29:35.847Z,27.10
2022-12-05T06:32:03.345Z,28.30
2022-12-05T06:34:32.644Z,39.60
2022-12-05T06:37:00.205Z,33.30
2022-12-05T06:39:27.557Z,34.10
2022-12-05T06:41:54.582Z,21.50
2022-12-05T06:44:22.140Z,19.50
2022-12-05T06:46:49.341Z,25.80
2022-12-05T06:49:16.401Z,21.70
2022-12-05T06:51:43.441Z,26.00
2022-12-05T06:54:12.996Z,33.30
2022-12-05T06:56:40.071Z,35.20
2022-12-05T06:59:07.168Z,46.70
2022-12-05T07:01:44.108Z,55.40
2022-12-05T07:04:20.339Z,41.10
2022-12-05T07:06:51.433Z,49.90
2022-12-05T07:09:43.899Z,57.00
2022-12-05T07:12:12.159Z,47.90
2022-12-05T07:14:47.655Z,87.20
2022-12-05T07:17:15.795Z,64.80
2022-12-05T07:19:42.822Z,42.20
2022-12-05T07:22:15.430Z,56.10
2022-12-05T07:24:44.289Z,60.50
2022-12-05T07:27:11.821Z,47.50
2022-12-05T07:29:38.895Z,42.10
2022-12-05T07:32:06.581Z,48.40
2022-12-05T07:34:33.709Z,33.80
2022-12-05T07:37:01.064Z,62.90
2022-12-05T07:39:28.234Z,55.80
2022-12-05T07:41:55.262Z,47.20
2022-12-05T07:44:22.335Z,51.30
2022-12-05T07:46:49.334Z,58.20
2022-12-05T07:49:16.433Z,41.10
2022-12-05T07:51:43.994Z,65.20
2022-12-05T07:54:11.022Z,40.10
2022-12-05T07:56:40.038Z,37.00
2022-12-05T07:59:10.282Z,37.60
2022-12-05T08:01:37.299Z,36.50
2022-12-05T08:04:04.559Z,24.90
2022-12-05T08:06:33.906Z,24.70
2022-12-05T08:09:00.984Z,27.00
2022-12-05T08:11:36.100Z,26.60
2022-12-05T08:14:05.014Z,27.70
2022-12-05T08:16:32.722Z,30.90
2022-12-05T08:19:03.488Z,31.70
2022-12-05T08:21:31.154Z,27.50
2022-12-05T08:23:58.893Z,27.90
2022-12-05T08:26:28.779Z,30.50
2022-12-05T08:29:01.768Z,29.20
2022-12-05T08:31:34.420Z,22.80
2022-12-05T08:34:01.602Z,24.60
2022-12-05T08:36:30.440Z,31.20
2022-12-05T08:38:59.766Z,28.20
2022-12-05T08:41:30.079Z,27.70
2022-12-05T08:43:59.701Z,44.90
2022-12-05T08:46:26.914Z,35.60
2022-12-05T08:48:54.665Z,26.10
2022-12-05T08:51:21.816Z,19.80
2022-12-05T08:53:49.068Z,24.30
2022-12-05T08:56:16.325Z,28.40
2022-12-05T08:58:43.374Z,27.50
2022-12-05T09:01:16.276Z,28.70
2022-12-05T09:03:48.100Z,34.00
2022-12-05T09:06:21.412Z,35.30
2022-12-05T09:08:49.660Z,35.70
2022-12-05T09:11:19.560Z,21.10
2022-12-05T09:13:47.931Z,18.70
2022-12-05T09:16:21.107Z,27.00
2022-12-05T09:18:49.604Z,22.70
2022-12-05T09:21:19.237Z,30.40
2022-12-05T09:23:46.285Z,31.00
2022-12-05T09:26:16.586Z,28.30
2022-12-05T09:28:44.427Z,22.20
2022-12-05T09:31:14.333Z,27.80
2022-12-05T09:33:41.824Z,25.70
2022-12-05T09:36:12.893Z,25.80
2022-12-05T09:38:40.695Z,21.60
2022-12-05T09:41:58.142Z,20.40
2022-12-05T09:47:49.122Z,22.90
2022-12-05T09:50:21.262Z,28.10
2022-12-05T09:53:20.772Z,34.10
2022-12-05T09:56:02.190Z,34.60
2022-12-05T09:58:51.807Z,34.60
2022-12-05T10:01:28.052Z,31.70
2022-12-05T10:04:33.727Z,29.40
2022-12-05T10:07:28.761Z,22.30
2022-12-05T10:10:20.217Z,25.00
2022-12-05T10:13:06.271Z,24.30
2022-12-05T10:15:57.158Z,25.10
2022-12-05T10:18:45.631Z,24.10
2022-12-05T10:21:21.086Z,26.80
2022-12-05T10:23:57.933Z,22.90
2022-12-05T10:26:32.832Z,22.40
2022-12-05T10:29:29.809Z,24.10
2022-12-05T10:32:06.892Z,26.30
2022-12-05T10:34:39.597Z,23.80
2022-12-05T10:37:24.284Z,21.50
2022-12-05T10:39:52.460Z,21.40
2022-12-05T10:42:31.772Z,18.90
2022-12-05T10:45:03.863Z,21.00
2022-12-05T10:47:32.319Z,17.70
2022-12-05T10:50:04.562Z,19.90
2022-12-05T10:52:32.432Z,23.70
2022-12-05T10:55:04.141Z,45.10
2022-12-05T10:57:31.684Z,24.60
2022-12-05T11:00:09.240Z,22.20
2022-12-05T11:02:38.263Z,21.00
2022-12-05T11:05:05.810Z,21.60
2022-12-05T11:07:38.022Z,18.80
2022-12-05T11:10:26.341Z,19.50
2022-12-05T11:12:56.840Z,18.20
2022-12-05T11:15:28.140Z,23.80
2022-12-05T11:17:58.976Z,19.80
2022-12-05T11:20:25.947Z,20.20
2022-12-05T11:22:56.379Z,30.20
2022-12-05T11:25:33.921Z,25.00
2022-12-05T11:28:21.088Z,24.50
2022-12-05T11:31:20.186Z,30.30
2022-12-05T11:34:16.192Z,23.60
2022-12-05T11:36:54.604Z,30.60
2022-12-05T11:39:21.784Z,32.10
2022-12-05T11:41:59.606Z,33.50
2022-12-05T11:44:51.130Z,30.50
2022-12-05T11:47:18.120Z,24.90
2022-12-05T11:50:02.019Z,27.50
2022-12-05T11:52:40.711Z,29.40
2022-12-05T11:55:30.266Z,26.00
2022-12-05T11:57:57.288Z,23.00
2022-12-05T12:00:55.414Z,26.20
2022-12-05T12:03:50.167Z,37.80
2022-12-05T12:06:17.280Z,28.90
2022-12-05T12:08:57.011Z,32.50
2022-12-05T12:11:46.251Z,34.30
2022-12-05T12:14:35.547Z,24.90
2022-12-05T12:17:21.462Z,33.40
2022-12-05T12:20:30.509Z,36.20
2022-12-05T12:23:26.728Z,32.30
2022-12-05T12:26:06.501Z,25.10
2022-12-05T12:28:46.540Z,32.80
2022-12-05T12:31:41.988Z,31.00
2022-12-05T12:34:38.046Z,17.00
2022-12-05T12:37:20.916Z,32.30
2022-12-05T12:40:13.748Z,24.70
2022-12-05T12:43:30.855Z,28.00
2022-12-05T12:46:38.693Z,31.60
2022-12-05T12:49:28.678Z,39.00
2022-12-05T12:52:11.013Z,44.30
2022-12-05T12:55:05.011Z,196.20
2022-12-05T12:57:39.693Z,47.10
2022-12-05T13:00:15.780Z,24.40
2022-12-05T13:03:06.453Z,30.40
2022-12-05T13:05:39.288Z,29.30
2022-12-05T13:08:29.249Z,34.90
2022-12-05T13:10:59.701Z,34.20
2022-12-05T13:13:34.070Z,18.40
2022-12-05T13:16:04.125Z,32.10
2022-12-05T13:18:31.169Z,31.20
2022-12-05T13:21:01.132Z,30.50
2022-12-05T13:23:31.095Z,44.00
2022-12-05T13:26:01.196Z,30.90
2022-12-05T13:28:42.089Z,28.00
2022-12-05T13:31:11.082Z,34.20
2022-12-05T13:33:46.992Z,43.00
2022-12-05T13:36:37.971Z,31.50
2022-12-05T13:39:34.591Z,42.90
2022-12-05T13:42:17.330Z,30.70
2022-12-05T13:44:44.343Z,30.80
2022-12-05T13:47:23.713Z,34.10
2022-12-05T13:50:01.677Z,35.70
2022-12-05T13:52:39.366Z,27.90
2022-12-05T13:55:39.291Z,36.30
2022-12-05T13:58:26.557Z,34.30
2022-12-05T14:01:31.027Z,28.80
2022-12-05T14:04:02.972Z,27.70
2022-12-05T14:06:38.244Z,18.90
2022-12-05T14:09:17.811Z,37.60
2022-12-05T14:12:13.071Z,40.10
2022-12-05T14:14:58.354Z,38.30
2022-12-05T14:17:29.585Z,40.00
2022-12-05T14:20:16.781Z,33.90
2022-12-05T14:22:54.504Z,35.20
2022-12-05T14:25:29.158Z,39.20
2022-12-05T14:28:27.156Z,53.80
2022-12-05T14:31:19.336Z,35.10
2022-12-05T14:33:46.596Z,30.50
2022-12-05T14:36:17.150Z,28.00
2022-12-05T14:38:44.635Z,37.60
2022-12-05T14:41:16.009Z,32.70
2022-12-05T14:43:43.952Z,51.40
2022-12-05T14:46:25.062Z,48.50
2022-12-05T14:48:52.334Z,39.20
2022-12-05T14:51:31.368Z,50.10
2022-12-05T14:54:06.425Z,39.70
2022-12-05T14:56:41.741Z,38.50
2022-12-05T14:59:25.225Z,45.70
2022-12-05T15:01:59.284Z,52.00
2022-12-05T15:04:29.583Z,44.50
2022-12-05T15:07:03.059Z,44.50
2022-12-05T15:10:01.003Z,45.00
2022-12-05T15:12:48.278Z,49.90
2022-12-05T15:15:42.710Z,47.00
2022-12-05T15:18:34.887Z,45.20
2022-12-05T15:21:09.381Z,53.70
2022-12-05T15:23:42.066Z,44.50
2022-12-05T15:26:47.325Z,43.10
2022-12-05T15:29:27.086Z,37.60
2022-12-05T15:31:55.455Z,75.70
2022-12-05T15:34:57.947Z,51.30
2022-12-05T15:37:28.445Z,52.60
2022-12-05T15:39:59.793Z,59.80
2022-12-05T15:42:30.449Z,148.10
2022-12-05T15:45:16.004Z,72.60
2022-12-05T15:50:16.655Z,52.10
2022-12-05T15:52:58.267Z,52.30
2022-12-05T15:55:29.746Z,44.30
2022-12-05T15:58:13.095Z,51.80
2022-12-05T16:00:45.919Z,38.70
2022-12-05T16:03:18.845Z,72.40
2022-12-05T16:05:55.445Z,53.90
2022-12-05T16:08:24.632Z,42.70
2022-12-05T16:10:52.123Z,40.60
2022-12-05T16:13:24.010Z,44.60
2022-12-05T16:15:54.247Z,42.30
2022-12-05T16:18:30.752Z,100.60
2022-12-05T16:20:58.291Z,48.00
2022-12-05T16:23:32.453Z,58.70
2022-12-05T16:26:20.732Z,49.50
2022-12-05T16:28:58.856Z,50.60
2022-12-05T16:31:26.164Z,87.80
2022-12-05T16:34:02.143Z,67.10
2022-12-05T16:36:29.269Z,110.60
2022-12-05T16:39:07.144Z,46.40
2022-12-05T16:41:36.399Z,44.50
2022-12-05T16:44:09.450Z,44.40
2022-12-05T16:46:44.285Z,53.00
2022-12-05T16:49:20.275Z,48.40
2022-12-05T16:51:58.712Z,42.10
2022-12-05T16:54:25.838Z,42.50
2022-12-05T16:56:52.989Z,34.80
2022-12-05T16:59:34.757Z,74.70
2022-12-05T17:02:05.528Z,59.50
2022-12-05T17:04:32.707Z,65.90
2022-12-05T17:06:59.766Z,59.90
2022-12-05T17:09:26.866Z,53.10
2022-12-05T17:12:01.954Z,58.60
2022-12-05T17:14:29.103Z,58.90
2022-12-05T17:16:56.203Z,75.00
2022-12-05T17:19:23.352Z,50.60
2022-12-05T17:21:50.529Z,55.70
2022-12-05T17:24:19.115Z,51.30
2022-12-05T17:26:47.569Z,39.80
2022-12-05T17:29:14.625Z,47.60
2022-12-05T17:31:41.851Z,45.00
2022-12-05T17:34:18.386Z,46.80
2022-12-05T17:36:45.723Z,45.60
2022-12-05T17:39:13.388Z,43.30
2022-12-05T17:41:40.485Z,40.20
2022-12-05T17:44:07.946Z,46.30
2022-12-05T17:46:35.250Z,40.50
2022-12-05T17:49:02.376Z,50.60
2022-12-05T17:51:30.610Z,59.80
2022-12-05T17:53:57.618Z,75.70
2022-12-05T17:56:24.845Z,81.90
2022-12-05T17:58:51.914Z,82.60
2022-12-05T18:01:20.816Z,99.40
2022-12-05T18:03:48.550Z,149.20
2022-12-05T18:06:16.678Z,109.10
2022-12-05T18:08:45.420Z,91.00
2022-12-05T18:11:14.130Z,86.80
2022-12-05T18:13:41.249Z,101.00
2022-12-05T18:16:08.398Z,192.10
2022-12-05T18:18:35.575Z,81.80
2022-12-05T18:21:10.585Z,89.10
2022-12-05T18:23:39.323Z,189.20
2022-12-05T18:26:08.039Z,154.30
2022-12-05T18:28:39.916Z,136.20
2022-12-05T18:31:15.705Z,121.90
2022-12-05T18:33:44.851Z,94.10
2022-12-05T18:36:15.896Z,113.00
2022-12-05T18:38:49.017Z,98.60
2022-12-05T18:41:16.026Z,131.60
2022-12-05T18:43:43.587Z,91.20
2022-12-05T18:46:10.686Z,100.70
2022-12-05T18:48:41.585Z,160.70
2022-12-05T18:51:16.890Z,96.50
2022-12-05T18:53:52.379Z,140.90
2022-12-05T18:56:24.719Z,133.90
2022-12-05T18:58:55.935Z,110.00
2022-12-05T19:01:23.807Z,68.20
2022-12-05T19:03:51.155Z,122.90
2022-12-05T19:06:21.301Z,96.40
2022-12-05T19:08:48.577Z,98.10
2022-12-05T19:11:17.759Z,139.60
2022-12-05T19:13:45.081Z,85.80
2022-12-05T19:16:19.584Z,55.10
2022-12-05T19:18:47.377Z,73.90
2022-12-05T19:21:14.520Z,67.50
2022-12-05T19:23:41.545Z,78.40
2022-12-05T19:26:09.756Z,89.30
2022-12-05T19:28:38.146Z,62.40
2022-12-05T19:31:10.885Z,51.30
2022-12-05T19:33:41.047Z,86.10
2022-12-05T19:36:11.736Z,52.20
2022-12-05T19:38:41.396Z,60.50
2022-12-05T19:41:10.875Z,60.20
2022-12-05T19:43:39.174Z,52.30
2022-12-05T19:46:08.550Z,55.10
2022-12-05T19:48:36.040Z,57.40
2022-12-05T19:51:04.235Z,54.80
2022-12-05T19:53:34.716Z,65.30
2022-12-05T19:56:13.540Z,79.90
2022-12-05T19:58:41.204Z,77.60
2022-12-05T20:01:36.456Z,110.00
2022-12-05T20:04:09.604Z,69.40
2022-12-05T20:06:51.477Z,57.00
2022-12-05T20:09:20.747Z,49.90
2022-12-05T20:11:55.165Z,51.10
2022-12-05T20:14:24.908Z,48.40
2022-12-05T20:16:52.817Z,39.60
2022-12-05T20:19:20.001Z,43.20
2022-12-05T20:21:47.079Z,53.80
2022-12-05T20:24:14.174Z,37.40
2022-12-05T20:26:43.345Z,53.70
2022-12-05T20:29:10.961Z,49.70
2022-12-05T20:31:40.695Z,55.30
2022-12-05T20:34:11.738Z,55.00
2022-12-05T20:36:38.829Z,55.80
2022-12-05T20:39:17.634Z,41.10
2022-12-05T20:41:45.108Z,49.90
2022-12-05T20:44:15.015Z,44.30
2022-12-05T20:46:42.122Z,40.80
2022-12-05T20:49:09.845Z,51.00
2022-12-05T20:51:41.681Z,49.10
2022-12-05T20:54:09.115Z,56.10
2022-12-05T20:56:36.136Z,58.20
2022-12-05T20:59:05.619Z,57.10
2022-12-05T21:01:35.971Z,74.00
2022-12-05T21:04:05.833Z,63.80
2022-12-05T21:06:38.522Z,55.10
2022-12-05T21:09:15.503Z,43.80
2022-12-05T21:11:43.128Z,39.00
2022-12-05T21:14:11.021Z,42.00
2022-12-05T21:16:38.192Z,145.10
2022-12-05T21:19:05.374Z,77.70
2022-12-05T21:21:34.263Z,79.90
2022-12-05T21:24:03.490Z,75.60
2022-12-05T21:26:33.584Z,63.70
2022-12-05T21:29:02.791Z,52.10
2022-12-05T21:31:32.968Z,87.60
2022-12-05T21:34:04.355Z,75.10
2022-12-05T21:36:33.605Z,76.70
2022-12-05T21:39:00.810Z,81.00
2022-12-05T21:41:27.984Z,80.80
2022-12-05T21:43:55.982Z,50.60
2022-12-05T21:46:24.882Z,77.80
2022-12-05T21:48:51.994Z,89.10
2022-12-05T21:51:19.271Z,76.40
2022-12-05T21:53:46.372Z,76.80
2022-12-05T21:56:15.935Z,80.80
2022-12-05T21:58:44.628Z,70.20
2022-12-05T22:01:17.498Z,114.60
2022-12-05T22:03:45.320Z,129.00
2022-12-05T22:06:14.679Z,113.30
2022-12-05T22:08:42.766Z,97.20
2022-12-05T22:11:15.450Z,83.50
2022-12-05T22:13:44.339Z,75.00
2022-12-05T22:16:12.682Z,56.00
2022-12-05T22:18:40.372Z,53.00
2022-12-05T22:21:11.576Z,48.60
2022-12-05T22:23:38.941Z,72.00
2022-12-05T22:26:15.321Z,116.30
2022-12-05T22:28:42.327Z,107.90
2022-12-05T22:31:12.235Z,68.70
2022-12-05T22:33:39.965Z,86.20
2022-12-05T22:36:09.862Z,61.80
2022-12-05T22:38:42.333Z,59.30
2022-12-05T22:41:14.483Z,157.40
2022-12-05T22:43:43.322Z,83.30
2022-12-05T22:46:14.893Z,104.80
2022-12-05T22:48:42.230Z,130.40
2022-12-05T22:51:09.746Z,90.10
2022-12-05T22:53:37.325Z,112.80
2022-12-05T22:56:09.623Z,126.20
2022-12-05T22:58:37.105Z,108.40
2022-12-05T23:01:11.756Z,132.50
2022-12-05T23:03:39.468Z,90.30
2022-12-05T23:06:11.511Z,183.30
2022-12-05T23:08:41.108Z,74.30
2022-12-05T23:11:09.422Z,91.20
2022-12-05T23:13:37.774Z,64.20
2022-12-05T23:16:10.690Z,75.10
2022-12-05T23:18:47.938Z,104.30
2022-12-05T23:21:23.111Z,131.00
2022-12-05T23:23:53.347Z,100.00
2022-12-05T23:26:23.566Z,77.00
2022-12-05T23:28:51.481Z,80.20
2022-12-05T23:31:18.975Z,63.40
2022-12-05T23:33:49.574Z,62.80
2022-12-05T23:36:19.311Z,58.60
2022-12-05T23:38:46.499Z,54.80
2022-12-05T23:41:19.775Z,50.90
2022-12-05T23:43:48.306Z,144.20
2022-12-05T23:46:17.151Z,102.10
2022-12-05T23:48:44.758Z,77.30
2022-12-05T23:51:15.188Z,71.90
2022-12-05T23:53:44.434Z,70.80
2022-12-05T23:56:15.348Z,49.20
2022-12-05T23:58:43.009Z,47.70
